createdAt,value
2023-01-09T00:01:28.711Z,98452.16
2023-01-09T00:03:59.121Z,98459.81
2023-01-09T00:06:26.699Z,98464.06
2023-01-09T00:08:54.155Z,98472.75
2023-01-09T00:11:24.273Z,98464.50
2023-01-09T00:13:51.379Z,98473.75
2023-01-09T00:16:18.721Z,98476.38
2023-01-09T00:18:46.089Z,98473.19
2023-01-09T00:21:20.166Z,98467.13
2023-01-09T00:23:47.658Z,98474.38
2023-01-09T00:26:24.143Z,98479.03
2023-01-09T00:32:49.614Z,98495.19
2023-01-09T00:38:24.797Z,98513.16
2023-01-09T00:41:14.676Z,98521.66
2023-01-09T00:47:05.109Z,98535.38
2023-01-09T00:49:35.016Z,98533.56
2023-01-09T00:52:22.221Z,98537.59
2023-01-09T00:54:56.990Z,98546.69
2023-01-09T00:57:27.327Z,98554.56
2023-01-09T01:00:00.802Z,98559.81
2023-01-09T01:06:13.550Z,98568.50
2023-01-09T01:08:52.703Z,98577.41
2023-01-09T01:11:35.115Z,98577.41
2023-01-09T01:14:02.856Z,98586.09
2023-01-09T01:16:33.093Z,98589.53
2023-01-09T01:19:37.305Z,98598.03
2023-01-09T01:22:27.475Z,98593.78
2023-01-09T01:24:55.155Z,98614.16
2023-01-09T01:27:22.512Z,98615.22
2023-01-09T01:30:10.769Z,98630.97
2023-01-09T01:35:22.377Z,98634.78
2023-01-09T01:37:50.345Z,98647.09
2023-01-09T01:40:52.205Z,98650.56
2023-01-09T01:43:19.877Z,98648.94
2023-01-09T01:45:50.029Z,98666.09
2023-01-09T01:48:37.308Z,98671.56
2023-01-09T01:51:16.944Z,98659.63
2023-01-09T01:53:56.816Z,98661.25
2023-01-09T01:56:28.254Z,98668.53
2023-01-09T01:59:47.108Z,98685.28
2023-01-09T02:02:14.311Z,98690.94
2023-01-09T02:08:00.463Z,98694.38
2023-01-09T02:10:28.163Z,98694.56
2023-01-09T02:13:05.456Z,98701.81
2023-01-09T02:15:48.889Z,98713.34
2023-01-09T02:18:24.943Z,98716.16
2023-01-09T02:20:56.492Z,98717.78
2023-01-09T02:23:33.181Z,98722.63
2023-01-09T02:26:10.874Z,98724.84
2023-01-09T02:28:51.749Z,98731.53
2023-01-09T02:31:25.396Z,98736.16
2023-01-09T02:34:00.496Z,98746.47
2023-01-09T02:39:40.163Z,98761.59
2023-01-09T02:42:17.357Z,98751.88
2023-01-09T02:44:47.672Z,98765.19
2023-01-09T02:47:15.963Z,98761.75
2023-01-09T02:49:53.659Z,98766.41
2023-01-09T02:55:19.093Z,98772.84
2023-01-09T02:57:55.967Z,98778.47
2023-01-09T03:00:32.557Z,98786.75
2023-01-09T03:03:08.261Z,98798.06
2023-01-09T03:05:44.982Z,98805.31
2023-01-09T03:08:29.635Z,98806.06
2023-01-09T03:11:00.981Z,98824.22
2023-01-09T03:13:35.001Z,98831.47
2023-01-09T03:16:04.768Z,98828.41
2023-01-09T03:18:38.927Z,98835.69
2023-01-09T03:21:07.622Z,98833.25
2023-01-09T03:23:45.217Z,98845.53
2023-01-09T03:26:12.347Z,98854.84
2023-01-09T03:28:42.499Z,98846.97
2023-01-09T03:31:18.939Z,98856.66
2023-01-09T03:33:46.013Z,98857.47
2023-01-09T03:39:49.835Z,98864.28
2023-01-09T03:42:35.184Z,98876.97
2023-01-09T03:45:02.322Z,98880.78
2023-01-09T03:47:29.840Z,98885.22
2023-01-09T03:49:57.088Z,98882.59
2023-01-09T03:52:24.349Z,98898.72
2023-01-09T03:54:51.401Z,98899.09
2023-01-09T03:57:18.748Z,98904.34
2023-01-09T03:59:46.363Z,98905.16
2023-01-09T04:02:16.708Z,98915.66
2023-01-09T04:04:47.169Z,98914.22
2023-01-09T04:07:17.732Z,98908.75
2023-01-09T04:09:45.263Z,98923.66
2023-01-09T04:12:15.045Z,98930.50
2023-01-09T04:14:42.373Z,98935.31
2023-01-09T04:17:18.600Z,98936.69
2023-01-09T04:19:51.598Z,98946.38
2023-01-09T04:22:23.405Z,98944.56
2023-01-09T04:24:52.042Z,98949.16
2023-01-09T04:27:20.833Z,98945.72
2023-01-09T04:29:48.185Z,98946.94
2023-01-09T04:32:15.558Z,98953.19
2023-01-09T04:34:49.673Z,98962.66
2023-01-09T04:37:20.493Z,98966.09
2023-01-09T04:39:50.415Z,98955.63
2023-01-09T04:42:17.700Z,98982.81
2023-01-09T04:44:47.280Z,98973.97
2023-01-09T04:47:17.553Z,98977.59
2023-01-09T04:50:07.810Z,98971.16
2023-01-09T04:55:28.931Z,98976.03
2023-01-09T04:57:56.265Z,98987.31
2023-01-09T05:00:26.291Z,98997.63
2023-01-09T05:03:05.323Z,98983.72
2023-01-09T05:05:41.936Z,98990.78
2023-01-09T05:08:09.298Z,98989.31
2023-01-09T05:10:36.607Z,98995.38
2023-01-09T05:13:03.775Z,99003.25
2023-01-09T05:15:51.309Z,99005.03
2023-01-09T05:18:18.562Z,99001.59
2023-01-09T05:21:06.259Z,98995.56
2023-01-09T05:23:33.346Z,99005.03
2023-01-09T05:26:15.860Z,99018.38
2023-01-09T05:28:43.010Z,99028.22
2023-01-09T05:31:10.043Z,99028.38
2023-01-09T05:33:37.216Z,99033.63
2023-01-09T05:36:04.464Z,99041.69
2023-01-09T05:38:35.015Z,99045.50
2023-01-09T05:41:05.118Z,99050.72
2023-01-09T05:43:34.831Z,99046.84
2023-01-09T05:46:04.589Z,99060.16
2023-01-09T05:48:37.015Z,99060.16
2023-01-09T05:51:04.678Z,99061.94
2023-01-09T05:53:39.429Z,99069.00
2023-01-09T05:56:06.575Z,99069.63
2023-01-09T05:58:33.729Z,99060.97
2023-01-09T06:01:31.958Z,99061.59
2023-01-09T06:03:59.160Z,99066.38
2023-01-09T06:06:26.473Z,99068.81
2023-01-09T06:09:01.958Z,99066.59
2023-01-09T06:11:29.225Z,99070.81
2023-01-09T06:13:56.464Z,99076.84
2023-01-09T06:16:24.089Z,99076.25
2023-01-09T06:18:51.670Z,99088.38
2023-01-09T06:21:21.307Z,99100.81
2023-01-09T06:23:48.758Z,99095.75
2023-01-09T06:26:15.789Z,99105.00
2023-01-09T06:28:45.426Z,99108.44
2023-01-09T06:31:13.656Z,99102.19
2023-01-09T06:33:41.174Z,99100.19
2023-01-09T06:36:09.034Z,99113.13
2023-01-09T06:38:36.381Z,99120.16
2023-01-09T06:41:03.540Z,99112.13
2023-01-09T06:43:30.685Z,99120.25
2023-01-09T06:46:01.143Z,99116.66
2023-01-09T06:48:28.413Z,99131.34
2023-01-09T06:50:55.807Z,99133.97
2023-01-09T06:53:22.894Z,99133.53
2023-01-09T06:55:54.001Z,99137.63
2023-01-09T06:58:29.385Z,99140.78
2023-01-09T07:01:09.627Z,99141.84
2023-01-09T07:03:39.723Z,99141.66
2023-01-09T07:06:07.984Z,99146.09
2023-01-09T07:11:16.679Z,99164.28
2023-01-09T07:13:46.295Z,99166.72
2023-01-09T07:16:19.527Z,99166.53
2023-01-09T07:18:46.633Z,99178.63
2023-01-09T07:21:13.682Z,99181.44
2023-01-09T07:23:40.939Z,99190.31
2023-01-09T07:26:37.520Z,99192.13
2023-01-09T07:29:04.434Z,99196.72
2023-01-09T07:31:31.831Z,99206.22
2023-01-09T07:34:01.593Z,99200.59
2023-01-09T07:36:28.848Z,99204.84
2023-01-09T07:38:55.900Z,99210.28
2023-01-09T07:41:23.042Z,99214.34
2023-01-09T07:43:50.107Z,99216.53
2023-01-09T07:46:17.515Z,99235.06
2023-01-09T07:48:44.523Z,99237.69
2023-01-09T07:51:11.565Z,99235.06
2023-01-09T07:53:38.400Z,99240.31
2023-01-09T07:56:08.020Z,99247.19
2023-01-09T07:58:35.534Z,99257.84
2023-01-09T08:01:25.932Z,99255.38
2023-01-09T08:03:57.024Z,99263.44
2023-01-09T08:06:44.464Z,99269.50
2023-01-09T08:09:11.724Z,99268.59
2023-01-09T08:11:42.139Z,99267.75
2023-01-09T08:14:12.344Z,99273.19
2023-01-09T08:16:40.842Z,99278.25
2023-01-09T08:19:08.075Z,99276.97
2023-01-09T08:21:41.566Z,99279.59
2023-01-09T08:24:09.894Z,99289.28
2023-01-09T08:26:45.902Z,99292.88
2023-01-09T08:29:13.913Z,99301.38
2023-01-09T08:31:50.206Z,99314.66
2023-01-09T08:34:29.179Z,99322.34
2023-01-09T08:36:56.674Z,99330.22
2023-01-09T08:39:28.231Z,99331.22
2023-01-09T08:42:16.029Z,99344.97
2023-01-09T08:44:52.631Z,99349.84
2023-01-09T08:47:21.729Z,99351.41
2023-01-09T08:49:50.395Z,99359.72
2023-01-09T08:52:17.711Z,99357.09
2023-01-09T08:54:49.250Z,99361.63
2023-01-09T08:57:16.691Z,99365.53
2023-01-09T08:59:46.700Z,99371.06
2023-01-09T09:02:15.089Z,99365.09
2023-01-09T09:04:43.159Z,99370.00
2023-01-09T09:07:10.379Z,99379.47
2023-01-09T09:09:37.885Z,99382.59
2023-01-09T09:12:06.891Z,99386.19
2023-01-09T09:14:43.757Z,99382.59
2023-01-09T09:17:11.102Z,99393.53
2023-01-09T09:19:40.117Z,99404.59
2023-01-09T09:22:10.124Z,99400.16
2023-01-09T09:24:37.389Z,99408.22
2023-01-09T09:27:08.080Z,99412.13
2023-01-09T09:29:35.796Z,99425.69
2023-01-09T09:32:03.352Z,99414.47
2023-01-09T09:34:30.707Z,99425.69
2023-01-09T09:37:02.757Z,99428.44
2023-01-09T09:39:30.231Z,99443.47
2023-01-09T09:42:00.884Z,99430.78
2023-01-09T09:44:34.467Z,99451.97
2023-01-09T09:47:07.160Z,99444.72
2023-01-09T09:49:50.383Z,99455.94
2023-01-09T09:52:23.507Z,99467.53
2023-01-09T09:54:52.491Z,99479.97
2023-01-09T09:57:24.277Z,99480.66
2023-01-09T09:59:53.125Z,99491.28
2023-01-09T10:02:25.367Z,99492.38
2023-01-09T10:05:00.323Z,99501.69
2023-01-09T10:07:33.844Z,99502.50
2023-01-09T10:10:05.797Z,99513.28
2023-01-09T10:12:36.518Z,99521.63
2023-01-09T10:15:08.164Z,99527.72
2023-01-09T10:17:38.543Z,99530.81
2023-01-09T10:20:10.866Z,99537.06
2023-01-09T10:22:41.746Z,99544.13
2023-01-09T10:25:10.028Z,99544.13
2023-01-09T10:27:40.621Z,99560.88
2023-01-09T10:30:25.961Z,99558.78
2023-01-09T10:36:05.072Z,99575.66
2023-01-09T10:38:41.036Z,99585.00
2023-01-09T10:41:11.257Z,99588.25
2023-01-09T10:43:41.701Z,99584.91
2023-01-09T10:46:20.864Z,99599.50
2023-01-09T10:49:13.346Z,99600.31
2023-01-09T10:51:48.622Z,99598.69
2023-01-09T10:57:24.393Z,99613.13
2023-01-09T10:59:52.876Z,99615.75
2023-01-09T11:02:23.324Z,99627.16
2023-01-09T11:05:04.883Z,99624.63
2023-01-09T11:07:36.864Z,99638.75
2023-01-09T11:10:08.152Z,99634.31
2023-01-09T11:12:42.711Z,99633.16
2023-01-09T11:17:54.244Z,99649.53
2023-01-09T11:20:21.710Z,99655.19
2023-01-09T11:22:53.665Z,99657.59
2023-01-09T11:25:58.408Z,99658.44
2023-01-09T11:28:17.757Z,99659.25
2023-01-09T11:30:48.320Z,99655.19
2023-01-09T11:33:16.675Z,99657.25
2023-01-09T11:35:47.112Z,99662.16
2023-01-09T11:38:20.119Z,99654.47
2023-01-09T11:41:01.594Z,99670.84
2023-01-09T11:43:34.895Z,99676.28
2023-01-09T11:46:06.971Z,99688.72
2023-01-09T11:48:36.159Z,99689.97
2023-01-09T11:51:05.586Z,99698.78
2023-01-09T11:53:37.726Z,99708.50
2023-01-09T11:56:05.780Z,99709.59
2023-01-09T11:58:53.124Z,99716.13
2023-01-09T12:01:34.677Z,99718.84
2023-01-09T12:04:30.026Z,99726.63
2023-01-09T12:07:03.923Z,99726.91
2023-01-09T12:10:03.868Z,99721.09
2023-01-09T12:12:34.166Z,99736.16
2023-01-09T12:15:06.559Z,99739.69
2023-01-09T12:17:46.917Z,99751.31
2023-01-09T12:20:23.813Z,99748.13
2023-01-09T12:22:51.761Z,99750.03
2023-01-09T12:25:29.758Z,99751.84
2023-01-09T12:28:00.192Z,99764.44
2023-01-09T12:30:32.172Z,99761.44
2023-01-09T12:42:18.152Z,99777.41
2023-01-09T12:43:50.537Z,99789.81
2023-01-09T12:47:04.386Z,99794.09
2023-01-09T12:49:50.544Z,99809.81
2023-01-09T12:52:25.289Z,99801.19
2023-01-09T12:55:49.263Z,99801.63
2023-01-09T12:59:01.088Z,99807.53
2023-01-09T13:02:15.805Z,99818.06
2023-01-09T13:08:24.751Z,99830.91
2023-01-09T13:09:26.644Z,99819.00
2023-01-09T13:11:14.855Z,99828.44
2023-01-09T13:14:02.123Z,99829.63
2023-01-09T13:16:32.769Z,99834.44
2023-01-09T13:19:31.814Z,99849.63
2023-01-09T13:22:25.935Z,99849.97
2023-01-09T13:25:12.548Z,99850.91
2023-01-09T13:28:12.059Z,99851.19
2023-01-09T13:30:58.624Z,99864.44
2023-01-09T13:33:34.700Z,99855.16
2023-01-09T13:36:08.723Z,99862.53
2023-01-09T13:38:39.263Z,99876.44
2023-01-09T13:41:45.670Z,99881.06
2023-01-09T13:44:22.313Z,99886.78
2023-01-09T13:47:09.542Z,99898.59
2023-01-09T13:50:11.989Z,99901.41
2023-01-09T13:53:11.468Z,99912.13
2023-01-09T13:55:38.973Z,99920.03
2023-01-09T14:01:09.840Z,99929.19
2023-01-09T14:03:41.494Z,99929.28
2023-01-09T14:06:32.730Z,99940.31
2023-01-09T14:09:30.149Z,99948.00
2023-01-09T14:12:04.092Z,99951.84
2023-01-09T14:14:33.909Z,99953.66
2023-01-09T14:17:26.919Z,99974.09
2023-01-09T14:20:05.784Z,99981.72
2023-01-09T14:23:05.231Z,99987.81
2023-01-09T14:25:33.868Z,99998.34
2023-01-09T14:28:13.124Z,99998.50
2023-01-09T14:34:31.129Z,100004.31
2023-01-09T14:37:01.978Z,100013.13
2023-01-09T14:39:36.149Z,100026.84
2023-01-09T14:42:13.639Z,100032.66
2023-01-09T14:44:44.162Z,100043.88
2023-01-09T14:47:29.276Z,100051.66
2023-01-09T14:53:10.692Z,100073.66
2023-01-09T14:55:59.132Z,100094.25
2023-01-09T14:58:28.302Z,100094.94
2023-01-09T15:01:18.013Z,100099.75
2023-01-09T15:06:48.348Z,100125.41
2023-01-09T15:12:34.763Z,100136.75
2023-01-09T15:15:33.983Z,100142.38
2023-01-09T15:18:05.562Z,100147.66
2023-01-09T15:21:07.399Z,100150.66
2023-01-09T15:23:43.763Z,100161.06
2023-01-09T15:26:32.505Z,100176.72
2023-01-09T15:29:16.169Z,100172.63
2023-01-09T15:31:52.878Z,100178.34
2023-01-09T15:34:23.869Z,100183.16
2023-01-09T15:37:02.528Z,100192.22
2023-01-09T15:40:10.412Z,100190.41
2023-01-09T15:42:58.953Z,100195.16
2023-01-09T15:45:43.847Z,100203.53
2023-01-09T15:48:24.786Z,100207.34
2023-01-09T15:51:12.129Z,100208.31
2023-01-09T15:53:41.445Z,100208.63
2023-01-09T15:56:15.562Z,100214.72
2023-01-09T15:59:36.067Z,100216.72
2023-01-09T16:05:18.084Z,100222.78
2023-01-09T16:08:01.763Z,100232.16
2023-01-09T16:10:39.873Z,100236.75
2023-01-09T16:13:07.178Z,100243.28
2023-01-09T16:15:37.629Z,100253.00
2023-01-09T16:18:25.769Z,100260.06
2023-01-09T16:21:04.165Z,100273.72
2023-01-09T16:23:31.631Z,100270.41
2023-01-09T16:26:09.642Z,100283.88
2023-01-09T16:28:41.515Z,100305.22
2023-01-09T16:31:16.538Z,100305.56
2023-01-09T16:34:13.167Z,100321.31
2023-01-09T16:36:40.786Z,100331.81
2023-01-09T16:39:14.468Z,100338.72
2023-01-09T16:41:56.752Z,100344.13
2023-01-09T16:44:24.383Z,100346.78
2023-01-09T16:46:51.881Z,100364.00
2023-01-09T16:49:21.084Z,100377.66
2023-01-09T16:51:48.860Z,100372.22
2023-01-09T16:54:16.833Z,100380.78
2023-01-09T16:56:45.922Z,100381.63
2023-01-09T16:59:14.909Z,100381.47
2023-01-09T17:01:45.543Z,100387.50
2023-01-09T17:04:13.583Z,100403.63
2023-01-09T17:06:41.793Z,100414.47
2023-01-09T17:09:12.843Z,100413.94
2023-01-09T17:11:41.985Z,100414.75
2023-01-09T17:14:11.202Z,100419.88
2023-01-09T17:16:38.665Z,100420.53
2023-01-09T17:19:06.167Z,100435.50
2023-01-09T17:21:33.644Z,100428.44
2023-01-09T17:24:44.907Z,100429.22
2023-01-09T17:27:21.679Z,100434.47
2023-01-09T17:29:56.985Z,100448.31
2023-01-09T17:35:16.627Z,100452.59
2023-01-09T17:37:44.399Z,100451.75
2023-01-09T17:40:25.990Z,100455.50
2023-01-09T17:42:56.623Z,100447.13
2023-01-09T17:45:24.066Z,100461.41
2023-01-09T17:51:00.158Z,100462.53
2023-01-09T17:53:30.423Z,100465.63
2023-01-09T17:55:57.942Z,100470.53
2023-01-09T17:58:26.887Z,100454.91
2023-01-09T18:01:01.931Z,100460.00
2023-01-09T18:03:33.943Z,100470.66
2023-01-09T18:06:01.507Z,100473.75
2023-01-09T18:11:14.561Z,100483.59
2023-01-09T18:13:41.991Z,100488.19
2023-01-09T18:16:12.718Z,100495.41
2023-01-09T18:18:40.712Z,100489.31
2023-01-09T18:21:12.479Z,100498.16
2023-01-09T18:23:39.627Z,100491.28
2023-01-09T18:26:10.979Z,100497.66
2023-01-09T18:28:39.285Z,100497.81
2023-01-09T18:31:07.139Z,100499.59
2023-01-09T18:33:34.681Z,100502.22
2023-01-09T18:36:10.251Z,100506.00
2023-01-09T18:38:37.901Z,100498.44
2023-01-09T18:41:07.406Z,100498.72
2023-01-09T18:43:34.862Z,100519.88
2023-01-09T18:46:08.240Z,100510.38
2023-01-09T18:48:35.166Z,100523.50
2023-01-09T18:51:02.928Z,100523.34
2023-01-09T18:53:29.949Z,100530.56
2023-01-09T18:55:56.764Z,100530.56
2023-01-09T18:58:23.672Z,100542.88
2023-01-09T19:00:51.776Z,100543.69
2023-01-09T19:03:18.770Z,100547.44
2023-01-09T19:05:45.592Z,100553.00
2023-01-09T19:08:13.608Z,100558.25
2023-01-09T19:10:40.457Z,100559.38
2023-01-09T19:13:07.300Z,100567.41
2023-01-09T19:15:35.066Z,100575.56
2023-01-09T19:18:01.865Z,100583.16
2023-01-09T19:20:29.948Z,100586.63
2023-01-09T19:22:57.184Z,100587.59
2023-01-09T19:25:24.110Z,100596.28
2023-01-09T19:27:51.030Z,100602.50
2023-01-09T19:30:18.798Z,100608.03
2023-01-09T19:32:45.568Z,100619.53
2023-01-09T19:35:12.507Z,100629.34
2023-01-09T19:37:39.342Z,100621.63
2023-01-09T19:40:06.577Z,100641.00
2023-01-09T19:42:33.364Z,100644.59
2023-01-09T19:45:00.180Z,100644.72
2023-01-09T19:47:26.970Z,100656.19
2023-01-09T19:49:53.828Z,100645.88
2023-01-09T19:52:20.666Z,100651.25
2023-01-09T19:54:48.007Z,100641.72
2023-01-09T19:57:14.801Z,100640.75
2023-01-09T19:59:43.595Z,100639.94
2023-01-09T20:02:11.525Z,100650.44
2023-01-09T20:04:38.420Z,100652.38
2023-01-09T20:07:05.454Z,100648.91
2023-01-09T20:09:34.168Z,100644.78
2023-01-09T20:12:02.267Z,100645.75
2023-01-09T20:14:30.008Z,100655.59
2023-01-09T20:17:01.107Z,100652.28
2023-01-09T20:19:30.302Z,100662.09
2023-01-09T20:21:57.074Z,100661.25
2023-01-09T20:24:23.828Z,100676.19
2023-01-09T20:26:51.409Z,100676.19
2023-01-09T20:29:18.441Z,100681.59
2023-01-09T20:31:45.403Z,100683.53
2023-01-09T20:34:13.276Z,100686.28
2023-01-09T20:36:40.207Z,100687.72
2023-01-09T20:39:08.059Z,100697.53
2023-01-09T20:41:34.927Z,100693.56
2023-01-09T20:44:03.117Z,100701.56
2023-01-09T20:46:30.951Z,100708.59
2023-01-09T20:48:58.612Z,100711.34
2023-01-09T20:51:25.827Z,100723.38
2023-01-09T20:53:56.019Z,100728.63
2023-01-09T20:56:23.824Z,100736.50
2023-01-09T20:58:50.717Z,100737.31
2023-01-09T21:01:17.707Z,100740.22
2023-01-09T21:03:44.616Z,100747.41
2023-01-09T21:06:12.905Z,100751.13
2023-01-09T21:08:40.386Z,100760.28
2023-01-09T21:11:07.143Z,100759.03
2023-01-09T21:13:33.891Z,100770.50
2023-01-09T21:16:02.719Z,100773.41
2023-01-09T21:18:31.138Z,100781.00
2023-01-09T21:20:58.105Z,100774.94
2023-01-09T21:23:24.928Z,100774.66
2023-01-09T21:25:51.713Z,100777.72
2023-01-09T21:28:19.707Z,100780.34
2023-01-09T21:30:49.908Z,100779.50
2023-01-09T21:33:20.803Z,100786.41
2023-01-09T21:35:56.536Z,100791.38
2023-01-09T21:38:24.006Z,100803.78
2023-01-09T21:40:51.701Z,100805.19
2023-01-09T21:43:36.518Z,100825.47
2023-01-09T21:46:13.388Z,100817.31
2023-01-09T21:48:40.201Z,100821.06
2023-01-09T21:51:07.437Z,100818.44
2023-01-09T21:53:34.221Z,100820.94
2023-01-09T21:56:02.716Z,100823.81
2023-01-09T21:58:29.487Z,100819.41
2023-01-09T22:00:57.297Z,100826.44
2023-01-09T22:03:24.142Z,100817.91
2023-01-09T22:05:50.923Z,100818.03
2023-01-09T22:08:17.673Z,100838.88
2023-01-09T22:10:44.438Z,100848.25
2023-01-09T22:13:16.349Z,100861.78
2023-01-09T22:15:45.167Z,100868.69
2023-01-09T22:18:11.990Z,100867.72
2023-01-09T22:20:38.771Z,100882.88
2023-01-09T22:23:05.481Z,100876.13
2023-01-09T22:25:32.327Z,100876.13
2023-01-09T22:27:59.113Z,100876.25
2023-01-09T22:30:25.910Z,100875.56
2023-01-09T22:32:52.671Z,100878.34
2023-01-09T22:35:19.442Z,100872.13
2023-01-09T22:37:46.364Z,100889.06
2023-01-09T22:40:13.463Z,100884.00
2023-01-09T22:42:40.227Z,100894.47
2023-01-09T22:45:07.726Z,100892.81
2023-01-09T22:47:34.482Z,100898.19
2023-01-09T22:50:01.545Z,100910.47
2023-01-09T22:52:29.337Z,100910.75
2023-01-09T22:54:56.175Z,100907.56
2023-01-09T22:57:22.943Z,100904.97
2023-01-09T22:59:52.821Z,100918.28
2023-01-09T23:02:19.727Z,100919.41
2023-01-09T23:04:46.559Z,100926.44
2023-01-09T23:07:13.663Z,100930.13
2023-01-09T23:09:40.534Z,100931.81
2023-01-09T23:12:07.988Z,100934.28
2023-01-09T23:14:36.772Z,100939.66
2023-01-09T23:17:04.412Z,100941.31
2023-01-09T23:19:32.775Z,100935.97
2023-01-09T23:22:00.089Z,100935.81
2023-01-09T23:24:27.701Z,100933.19
2023-01-09T23:26:55.246Z,100939.03
2023-01-09T23:29:22.369Z,100944.28
2023-01-09T23:31:49.148Z,100940.81
2023-01-09T23:34:17.201Z,100941.78
2023-01-09T23:36:44.724Z,100944.28
2023-01-09T23:39:11.565Z,100942.50
2023-01-09T23:41:47.583Z,100940.66
2023-01-09T23:44:14.343Z,100948.53
2023-01-09T23:46:41.173Z,100944.13
2023-01-09T23:49:08.348Z,100953.66
2023-01-09T23:51:35.177Z,100959.84
2023-01-09T23:54:01.933Z,100963.31
2023-01-09T23:56:30.883Z,100969.66
2023-01-09T23:58:58.133Z,100969.66
